createdAt,value
2023-05-14T00:01:42.384Z,12.55
2023-05-14T00:04:09.353Z,12.53
2023-05-14T00:06:36.777Z,12.52
2023-05-14T00:09:04.459Z,12.48
2023-05-14T00:11:31.887Z,12.47
2023-05-14T00:13:58.962Z,12.49
2023-05-14T00:16:26.418Z,12.47
2023-05-14T00:18:53.893Z,12.50
2023-05-14T00:21:21.578Z,12.45
2023-05-14T00:23:48.984Z,12.44
2023-05-14T00:26:16.287Z,12.48
2023-05-14T00:28:43.726Z,12.47
2023-05-14T00:31:11.291Z,12.50
2023-05-14T00:33:38.723Z,12.59
2023-05-14T00:36:06.195Z,12.56
2023-05-14T00:38:33.210Z,12.60
2023-05-14T00:41:00.159Z,12.63
2023-05-14T00:43:27.626Z,12.67
2023-05-14T00:45:56.123Z,12.75
2023-05-14T00:48:23.563Z,12.76
2023-05-14T00:50:51.483Z,12.82
2023-05-14T00:53:19.829Z,12.90
2023-05-14T00:55:49.198Z,12.89
2023-05-14T00:58:16.670Z,12.90
2023-05-14T01:00:44.159Z,12.88
2023-05-14T01:03:11.885Z,12.87
2023-05-14T01:06:08.980Z,12.87
2023-05-14T01:09:06.768Z,12.84
2023-05-14T01:12:20.980Z,12.84
2023-05-14T01:15:12.648Z,12.83
2023-05-14T01:17:49.170Z,12.82
2023-05-14T01:20:16.787Z,12.79
2023-05-14T01:22:43.845Z,12.78
2023-05-14T01:25:11.083Z,12.80
2023-05-14T01:27:59.435Z,12.71
2023-05-14T01:30:41.419Z,12.72
2023-05-14T01:33:14.092Z,12.69
2023-05-14T01:35:41.667Z,12.70
2023-05-14T01:38:12.656Z,12.72
2023-05-14T01:40:40.052Z,12.73
2023-05-14T01:43:07.157Z,12.69
2023-05-14T01:45:36.687Z,12.63
2023-05-14T01:48:05.761Z,12.60
2023-05-14T01:50:32.841Z,12.61
2023-05-14T01:53:00.452Z,12.60
2023-05-14T01:55:27.877Z,12.61
2023-05-14T01:57:55.022Z,12.65
2023-05-14T02:00:26.234Z,12.59
2023-05-14T02:02:53.539Z,12.62
2023-05-14T02:05:21.281Z,12.53
2023-05-14T02:07:48.451Z,12.57
2023-05-14T02:10:15.650Z,12.56
2023-05-14T02:12:42.721Z,12.57
2023-05-14T02:15:11.183Z,12.57
2023-05-14T02:17:38.381Z,12.55
2023-05-14T02:20:06.495Z,12.55
2023-05-14T02:22:33.890Z,12.54
2023-05-14T02:25:01.510Z,12.57
2023-05-14T02:27:28.594Z,12.53
2023-05-14T02:30:00.785Z,12.52
2023-05-14T02:32:28.909Z,12.56
2023-05-14T02:34:56.054Z,12.50
2023-05-14T02:37:23.460Z,12.54
2023-05-14T02:39:50.488Z,12.45
2023-05-14T02:42:17.481Z,12.41
2023-05-14T02:44:44.888Z,12.39
2023-05-14T02:47:12.043Z,12.37
2023-05-14T02:49:40.392Z,12.38
2023-05-14T02:52:07.485Z,12.33
2023-05-14T02:54:34.727Z,12.29
2023-05-14T02:57:01.819Z,12.29
2023-05-14T02:59:29.549Z,12.32
2023-05-14T03:01:57.006Z,12.29
2023-05-14T03:04:24.418Z,12.29
2023-05-14T03:06:51.815Z,12.26
2023-05-14T03:09:18.826Z,12.26
2023-05-14T03:11:45.990Z,12.19
2023-05-14T03:14:12.942Z,12.18
2023-05-14T03:16:42.405Z,12.09
2023-05-14T03:19:10.203Z,12.00
2023-05-14T03:21:37.436Z,11.95
2023-05-14T03:24:04.614Z,11.94
2023-05-14T03:26:31.987Z,11.91
2023-05-14T03:28:59.455Z,11.93
2023-05-14T03:31:26.871Z,11.84
2023-05-14T03:33:54.055Z,11.81
2023-05-14T03:36:21.041Z,11.76
2023-05-14T03:38:48.049Z,11.67
2023-05-14T03:41:15.070Z,11.54
2023-05-14T03:43:42.475Z,11.58
2023-05-14T03:46:09.681Z,11.58
2023-05-14T03:48:37.080Z,11.50
2023-05-14T03:51:04.664Z,11.51
2023-05-14T03:53:31.728Z,11.55
2023-05-14T03:55:59.190Z,11.48
2023-05-14T03:58:26.923Z,11.45
2023-05-14T04:00:54.314Z,11.45
2023-05-14T04:03:21.619Z,11.42
2023-05-14T04:05:53.173Z,11.44
2023-05-14T04:08:20.299Z,11.42
2023-05-14T04:10:47.642Z,11.33
2023-05-14T04:13:17.918Z,11.32
2023-05-14T04:15:45.706Z,11.29
2023-05-14T04:18:13.284Z,11.23
2023-05-14T04:20:41.206Z,11.14
2023-05-14T04:23:09.240Z,11.13
2023-05-14T04:25:36.329Z,11.14
2023-05-14T04:28:03.799Z,11.07
2023-05-14T04:30:31.252Z,11.10
2023-05-14T04:32:58.818Z,11.09
2023-05-14T04:35:26.342Z,11.16
2023-05-14T04:37:53.777Z,11.23
2023-05-14T04:40:22.891Z,11.25
2023-05-14T04:42:50.398Z,11.21
2023-05-14T04:45:17.806Z,11.26
2023-05-14T04:47:46.143Z,11.25
2023-05-14T04:50:13.750Z,11.29
2023-05-14T04:52:41.256Z,11.32
2023-05-14T04:55:12.165Z,11.31
2023-05-14T04:57:39.601Z,11.32
2023-05-14T05:00:08.255Z,11.36
2023-05-14T05:02:38.675Z,11.42
2023-05-14T05:05:06.329Z,11.55
2023-05-14T05:07:33.833Z,11.38
2023-05-14T05:10:00.862Z,11.50
2023-05-14T05:12:30.368Z,11.51
2023-05-14T05:14:58.136Z,11.49
2023-05-14T05:17:25.895Z,11.54
2023-05-14T05:19:53.403Z,11.62
2023-05-14T05:22:20.983Z,11.71
2023-05-14T05:24:50.891Z,11.73
2023-05-14T05:27:18.289Z,11.67
2023-05-14T05:29:46.447Z,11.73
2023-05-14T05:32:14.075Z,11.76
2023-05-14T05:34:41.792Z,11.88
2023-05-14T05:37:12.788Z,11.90
2023-05-14T05:39:40.572Z,11.89
2023-05-14T05:42:08.794Z,12.00
2023-05-14T05:44:42.557Z,12.06
2023-05-14T05:47:09.969Z,12.11
2023-05-14T05:49:37.746Z,12.16
2023-05-14T05:52:05.785Z,12.12
2023-05-14T05:54:33.139Z,12.20
2023-05-14T05:57:00.851Z,12.22
2023-05-14T05:59:35.445Z,12.29
2023-05-14T06:02:03.198Z,12.27
2023-05-14T06:04:30.706Z,12.39
2023-05-14T06:06:58.082Z,12.52
2023-05-14T06:09:25.675Z,12.58
2023-05-14T06:11:52.642Z,12.60
2023-05-14T06:14:20.711Z,12.69
2023-05-14T06:16:48.275Z,12.67
2023-05-14T06:19:15.948Z,12.65
2023-05-14T06:21:44.597Z,12.69
2023-05-14T06:24:13.445Z,12.62
2023-05-14T06:26:40.863Z,12.73
2023-05-14T06:29:11.269Z,12.72
2023-05-14T06:31:39.320Z,12.74
2023-05-14T06:34:08.021Z,12.75
2023-05-14T06:36:35.542Z,12.74
2023-05-14T06:39:06.170Z,12.89
2023-05-14T06:41:34.846Z,12.83
2023-05-14T06:44:02.238Z,12.88
2023-05-14T06:46:29.649Z,12.94
2023-05-14T06:48:59.204Z,13.02
2023-05-14T06:51:27.185Z,13.10
2023-05-14T06:53:56.188Z,13.10
2023-05-14T06:56:23.660Z,13.21
2023-05-14T06:58:51.221Z,13.34
2023-05-14T07:01:18.622Z,13.30
2023-05-14T07:03:45.998Z,13.42
2023-05-14T07:06:14.122Z,13.69
2023-05-14T07:08:41.150Z,13.70
2023-05-14T07:11:08.646Z,13.92
2023-05-14T07:13:36.337Z,13.96
2023-05-14T07:16:03.784Z,13.78
2023-05-14T07:18:31.433Z,14.07
2023-05-14T07:20:58.916Z,14.28
2023-05-14T07:23:25.885Z,14.44
2023-05-14T07:25:53.296Z,14.33
2023-05-14T07:28:20.681Z,14.45
2023-05-14T07:30:48.171Z,14.54
2023-05-14T07:33:15.574Z,14.81
2023-05-14T07:35:42.542Z,14.87
2023-05-14T07:38:09.980Z,15.17
2023-05-14T07:40:36.946Z,15.17
2023-05-14T07:43:04.489Z,15.15
2023-05-14T07:45:31.895Z,15.41
2023-05-14T07:47:59.510Z,15.55
2023-05-14T07:50:27.270Z,15.34
2023-05-14T07:52:54.347Z,15.34
2023-05-14T07:55:21.462Z,15.64
2023-05-14T07:57:48.908Z,15.99
2023-05-14T08:00:17.189Z,16.09
2023-05-14T08:02:45.290Z,16.21
2023-05-14T08:05:12.709Z,16.13
2023-05-14T08:07:40.202Z,15.98
2023-05-14T08:10:08.133Z,16.23
2023-05-14T08:12:35.787Z,16.16
2023-05-14T08:15:03.535Z,16.24
2023-05-14T08:17:30.696Z,16.56
2023-05-14T08:19:57.750Z,16.41
2023-05-14T08:22:24.743Z,16.74
2023-05-14T08:24:51.893Z,16.75
2023-05-14T08:27:19.008Z,16.47
2023-05-14T08:29:47.270Z,16.98
2023-05-14T08:32:22.568Z,17.00
2023-05-14T08:34:51.036Z,16.71
2023-05-14T08:37:18.241Z,16.85
2023-05-14T08:39:45.352Z,17.16
2023-05-14T08:42:13.886Z,17.82
2023-05-14T08:44:55.024Z,17.46
2023-05-14T08:47:24.176Z,17.36
2023-05-14T08:50:06.544Z,18.03
2023-05-14T08:52:35.219Z,18.05
2023-05-14T08:55:06.497Z,18.11
2023-05-14T08:57:34.713Z,18.16
2023-05-14T09:00:15.161Z,18.57
2023-05-14T09:02:44.814Z,18.89
2023-05-14T09:05:13.322Z,18.03
2023-05-14T09:07:40.583Z,18.54
2023-05-14T09:10:09.269Z,18.19
2023-05-14T09:12:36.408Z,18.12
2023-05-14T09:15:05.126Z,18.77
2023-05-14T09:17:33.829Z,18.81
2023-05-14T09:20:01.435Z,18.86
2023-05-14T09:22:32.545Z,18.86
2023-05-14T09:25:05.484Z,19.26
2023-05-14T09:27:33.936Z,18.73
2023-05-14T09:30:10.804Z,19.33
2023-05-14T09:32:47.306Z,19.50
2023-05-14T09:35:25.531Z,19.30
2023-05-14T09:37:54.759Z,18.86
2023-05-14T09:40:24.616Z,19.39
2023-05-14T09:42:52.196Z,18.90
2023-05-14T09:45:22.895Z,18.72
2023-05-14T09:47:50.474Z,18.14
2023-05-14T09:50:17.704Z,18.69
2023-05-14T09:52:45.992Z,19.34
2023-05-14T09:55:13.691Z,19.98
2023-05-14T09:57:40.899Z,20.09
2023-05-14T10:00:09.415Z,19.84
2023-05-14T10:02:38.867Z,20.33
2023-05-14T10:05:07.655Z,19.73
2023-05-14T10:07:44.777Z,19.26
2023-05-14T10:10:17.129Z,19.62
2023-05-14T10:12:57.420Z,19.47
2023-05-14T10:15:34.887Z,20.01
2023-05-14T10:18:11.550Z,20.59
2023-05-14T10:20:41.167Z,20.08
2023-05-14T10:23:08.358Z,19.76
2023-05-14T10:25:36.964Z,20.24
2023-05-14T10:28:05.019Z,20.01
2023-05-14T10:30:32.749Z,20.62
2023-05-14T10:33:12.574Z,19.89
2023-05-14T10:36:06.129Z,19.72
2023-05-14T10:38:36.128Z,19.49
2023-05-14T10:41:21.553Z,19.24
2023-05-14T10:43:48.873Z,19.08
2023-05-14T10:46:16.189Z,19.21
2023-05-14T10:48:44.492Z,18.68
2023-05-14T10:51:12.639Z,18.60
2023-05-14T10:53:42.388Z,18.69
2023-05-14T10:56:14.420Z,18.93
2023-05-14T10:58:45.907Z,18.82
2023-05-14T11:01:13.892Z,18.61
2023-05-14T11:03:46.679Z,18.54
2023-05-14T11:06:16.360Z,18.81
2023-05-14T11:08:46.704Z,18.77
2023-05-14T11:11:14.240Z,18.56
2023-05-14T11:13:43.052Z,18.81
2023-05-14T11:18:42.015Z,18.47
2023-05-14T11:21:09.333Z,18.39
2023-05-14T11:23:36.347Z,18.53
2023-05-14T11:26:03.613Z,18.43
2023-05-14T11:28:30.815Z,18.41
2023-05-14T11:30:58.411Z,18.58
2023-05-14T11:33:28.095Z,18.72
2023-05-14T11:35:56.069Z,18.82
2023-05-14T11:38:23.606Z,18.73
2023-05-14T11:40:58.908Z,18.93
2023-05-14T11:43:29.319Z,18.96
2023-05-14T11:45:57.152Z,19.00
2023-05-14T11:48:24.825Z,18.95
2023-05-14T11:50:53.338Z,18.93
2023-05-14T11:53:25.889Z,18.71
2023-05-14T11:55:54.747Z,18.91
2023-05-14T11:58:22.365Z,19.18
2023-05-14T12:00:53.866Z,19.20
2023-05-14T12:03:29.701Z,19.64
2023-05-14T12:06:02.620Z,19.42
2023-05-14T12:08:31.529Z,19.27
2023-05-14T12:11:01.044Z,19.58
2023-05-14T12:13:30.826Z,19.65
2023-05-14T12:16:00.951Z,19.75
2023-05-14T12:18:30.976Z,19.97
2023-05-14T12:21:04.441Z,20.02
2023-05-14T12:23:33.048Z,20.36
2023-05-14T12:26:06.953Z,20.61
2023-05-14T12:28:37.965Z,21.12
2023-05-14T12:31:05.766Z,20.50
2023-05-14T12:33:33.338Z,21.63
2023-05-14T12:36:20.722Z,21.52
2023-05-14T12:38:50.615Z,20.68
2023-05-14T12:41:21.371Z,19.99
2023-05-14T12:43:49.757Z,20.16
2023-05-14T12:46:19.670Z,20.47
2023-05-14T12:48:47.289Z,21.12
2023-05-14T12:51:14.713Z,21.15
2023-05-14T12:53:42.168Z,21.14
2023-05-14T12:56:09.825Z,21.80
2023-05-14T12:58:37.199Z,22.04
2023-05-14T13:01:05.039Z,21.83
2023-05-14T13:03:32.144Z,21.81
2023-05-14T13:05:59.971Z,22.40
2023-05-14T13:08:27.596Z,22.40
2023-05-14T13:10:55.483Z,22.16
2023-05-14T13:13:23.577Z,22.24
2023-05-14T13:15:53.202Z,21.91
2023-05-14T13:18:20.652Z,21.45
2023-05-14T13:20:47.755Z,21.86
2023-05-14T13:23:15.347Z,21.56
2023-05-14T13:25:42.727Z,22.73
2023-05-14T13:28:10.149Z,21.75
2023-05-14T13:30:37.209Z,21.14
2023-05-14T13:33:05.276Z,22.00
2023-05-14T13:35:33.148Z,21.72
2023-05-14T13:38:00.592Z,22.63
2023-05-14T13:40:27.708Z,22.75
2023-05-14T13:42:55.152Z,22.61
2023-05-14T13:45:22.876Z,22.94
2023-05-14T13:47:51.565Z,23.15
2023-05-14T13:50:19.248Z,22.41
2023-05-14T13:52:46.592Z,23.25
2023-05-14T13:55:14.251Z,22.92
2023-05-14T13:57:41.850Z,23.42
2023-05-14T14:00:09.653Z,23.46
2023-05-14T14:02:37.177Z,23.33
2023-05-14T14:05:05.411Z,23.78
2023-05-14T14:07:32.800Z,23.29
2023-05-14T14:10:01.673Z,23.70
2023-05-14T14:12:32.145Z,22.78
2023-05-14T14:14:59.765Z,23.60
2023-05-14T14:17:27.333Z,23.43
2023-05-14T14:19:54.763Z,23.93
2023-05-14T14:22:22.804Z,23.99
2023-05-14T14:24:52.153Z,23.69
2023-05-14T14:27:19.521Z,22.50
2023-05-14T14:29:46.674Z,22.70
2023-05-14T14:32:14.037Z,21.92
2023-05-14T14:34:41.287Z,22.93
2023-05-14T14:37:08.783Z,23.62
2023-05-14T14:39:36.199Z,23.96
2023-05-14T14:42:03.639Z,23.17
2023-05-14T14:44:31.102Z,22.81
2023-05-14T14:46:58.628Z,24.00
2023-05-14T14:49:26.146Z,23.51
2023-05-14T14:51:53.847Z,22.61
2023-05-14T14:54:21.262Z,21.95
2023-05-14T14:56:52.370Z,21.48
2023-05-14T14:59:19.366Z,22.20
2023-05-14T15:01:46.869Z,22.37
2023-05-14T15:04:14.665Z,21.60
2023-05-14T15:06:42.059Z,21.05
2023-05-14T15:09:09.432Z,20.65
2023-05-14T15:11:37.414Z,21.19
2023-05-14T15:14:05.167Z,22.18
2023-05-14T15:16:32.185Z,22.41
2023-05-14T15:18:59.393Z,21.99
2023-05-14T15:21:26.819Z,23.06
2023-05-14T15:23:54.239Z,23.25
2023-05-14T15:26:21.819Z,23.16
2023-05-14T15:28:48.802Z,23.20
2023-05-14T15:31:17.313Z,22.74
2023-05-14T15:33:44.667Z,23.09
2023-05-14T15:36:12.757Z,22.98
2023-05-14T15:38:40.654Z,23.51
2023-05-14T15:41:07.914Z,23.51
2023-05-14T15:43:35.027Z,23.19
2023-05-14T15:46:02.052Z,23.43
2023-05-14T15:48:32.634Z,23.27
2023-05-14T15:50:59.882Z,23.68
2023-05-14T15:53:27.246Z,23.34
2023-05-14T15:55:54.216Z,23.18
2023-05-14T15:58:22.740Z,23.15
2023-05-14T16:00:49.707Z,23.25
2023-05-14T16:03:18.073Z,23.28
2023-05-14T16:05:45.575Z,23.26
2023-05-14T16:08:13.191Z,23.92
2023-05-14T16:10:40.264Z,24.09
2023-05-14T16:13:07.250Z,23.92
2023-05-14T16:15:34.942Z,23.84
2023-05-14T16:18:02.316Z,23.23
2023-05-14T16:20:31.409Z,23.09
2023-05-14T16:22:58.381Z,23.12
2023-05-14T16:25:25.386Z,23.23
2023-05-14T16:27:52.707Z,23.26
2023-05-14T16:30:19.800Z,23.84
2023-05-14T16:32:49.502Z,23.97
2023-05-14T16:35:17.009Z,22.90
2023-05-14T16:37:44.396Z,23.45
2023-05-14T16:40:12.380Z,23.68
2023-05-14T16:42:39.941Z,23.82
2023-05-14T16:45:07.979Z,24.12
2023-05-14T16:47:35.912Z,24.13
2023-05-14T16:50:03.383Z,24.04
2023-05-14T16:52:30.974Z,23.49
2023-05-14T16:54:58.358Z,23.75
2023-05-14T16:57:26.665Z,24.20
2023-05-14T16:59:54.317Z,23.63
2023-05-14T17:02:21.753Z,23.89
2023-05-14T17:04:49.329Z,23.20
2023-05-14T17:07:17.043Z,23.09
2023-05-14T17:09:44.066Z,23.68
2023-05-14T17:12:13.716Z,22.80
2023-05-14T17:14:41.107Z,22.55
2023-05-14T17:17:08.527Z,22.32
2023-05-14T17:19:35.647Z,21.79
2023-05-14T17:22:05.972Z,21.89
2023-05-14T17:24:33.101Z,21.86
2023-05-14T17:27:00.530Z,21.99
2023-05-14T17:29:28.115Z,22.37
2023-05-14T17:31:55.123Z,22.40
2023-05-14T17:34:22.550Z,22.00
2023-05-14T17:36:50.163Z,21.59
2023-05-14T17:39:17.624Z,21.26
2023-05-14T17:41:44.899Z,20.99
2023-05-14T17:46:54.915Z,20.81
2023-05-14T17:49:22.628Z,20.92
2023-05-14T17:51:50.239Z,20.38
2023-05-14T17:54:17.556Z,20.12
2023-05-14T17:56:44.857Z,20.42
2023-05-14T17:59:12.262Z,20.32
2023-05-14T18:01:39.547Z,20.15
2023-05-14T18:04:06.876Z,19.91
2023-05-14T18:06:34.067Z,20.96
2023-05-14T18:09:01.034Z,20.88
2023-05-14T18:11:33.705Z,19.73
2023-05-14T18:14:01.443Z,19.71
2023-05-14T18:16:29.105Z,19.47
2023-05-14T18:19:00.413Z,19.59
2023-05-14T18:21:27.594Z,19.71
2023-05-14T18:23:54.603Z,19.33
2023-05-14T18:26:24.166Z,19.05
2023-05-14T18:28:51.566Z,19.28
2023-05-14T18:31:18.590Z,19.46
2023-05-14T18:33:46.127Z,19.09
2023-05-14T18:36:13.174Z,19.16
2023-05-14T18:38:41.026Z,19.18
2023-05-14T18:41:08.013Z,18.86
2023-05-14T18:43:34.983Z,18.95
2023-05-14T18:46:02.074Z,19.02
2023-05-14T18:48:30.657Z,18.53
2023-05-14T18:50:58.146Z,18.72
2023-05-14T18:53:25.344Z,18.46
2023-05-14T18:55:52.343Z,18.12
2023-05-14T18:58:19.390Z,17.73
2023-05-14T19:00:46.766Z,17.99
2023-05-14T19:03:14.138Z,17.78
2023-05-14T19:05:41.238Z,17.68
2023-05-14T19:08:08.725Z,17.66
2023-05-14T19:10:35.811Z,17.68
2023-05-14T19:13:03.695Z,17.54
2023-05-14T19:15:33.800Z,17.36
2023-05-14T19:18:01.630Z,17.53
2023-05-14T19:20:28.764Z,17.40
2023-05-14T19:22:55.870Z,17.17
2023-05-14T19:25:23.121Z,17.11
2023-05-14T19:27:51.283Z,17.10
2023-05-14T19:30:19.559Z,17.04
2023-05-14T19:32:47.079Z,17.08
2023-05-14T19:35:16.561Z,17.11
2023-05-14T19:37:43.653Z,16.95
2023-05-14T19:40:11.354Z,16.86
2023-05-14T19:42:38.447Z,16.97
2023-05-14T19:45:06.811Z,17.00
2023-05-14T19:47:34.504Z,17.02
2023-05-14T19:50:02.019Z,16.82
2023-05-14T19:52:29.105Z,16.77
2023-05-14T19:54:56.321Z,16.91
2023-05-14T19:57:23.785Z,16.86
2023-05-14T19:59:51.278Z,16.84
2023-05-14T20:02:21.682Z,16.76
2023-05-14T20:04:49.603Z,16.74
2023-05-14T20:07:17.334Z,16.57
2023-05-14T20:09:44.883Z,16.51
2023-05-14T20:12:13.351Z,16.46
2023-05-14T20:14:41.435Z,16.45
2023-05-14T20:17:09.197Z,16.40
2023-05-14T20:19:36.920Z,16.29
2023-05-14T20:22:04.205Z,16.23
2023-05-14T20:24:31.873Z,16.13
2023-05-14T20:26:59.589Z,16.18
2023-05-14T20:29:27.000Z,16.12
2023-05-14T20:31:54.453Z,15.95
2023-05-14T20:34:21.993Z,15.97
2023-05-14T20:36:49.406Z,16.06
2023-05-14T20:39:16.768Z,15.98
2023-05-14T20:41:45.711Z,15.99
2023-05-14T20:44:12.838Z,15.94
2023-05-14T20:46:40.135Z,15.84
2023-05-14T20:49:07.539Z,16.00
2023-05-14T20:51:34.509Z,15.71
2023-05-14T20:54:02.580Z,15.64
2023-05-14T20:56:30.457Z,15.61
2023-05-14T20:58:57.530Z,15.50
2023-05-14T21:01:24.631Z,15.50
2023-05-14T21:03:51.859Z,15.42
2023-05-14T21:06:18.925Z,15.29
2023-05-14T21:08:45.960Z,15.27
2023-05-14T21:11:12.968Z,15.31
2023-05-14T21:13:39.908Z,15.21
2023-05-14T21:16:07.477Z,15.17
2023-05-14T21:18:34.528Z,15.14
2023-05-14T21:21:01.543Z,15.13
2023-05-14T21:23:28.596Z,15.00
2023-05-14T21:25:55.758Z,15.08
2023-05-14T21:28:23.014Z,14.98
2023-05-14T21:30:51.248Z,14.94
2023-05-14T21:33:18.617Z,14.95
2023-05-14T21:35:45.615Z,14.94
2023-05-14T21:38:12.634Z,15.00
2023-05-14T21:40:39.615Z,14.74
2023-05-14T21:43:06.838Z,14.85
2023-05-14T21:45:35.265Z,14.80
2023-05-14T21:48:02.347Z,14.69
2023-05-14T21:50:29.773Z,14.59
2023-05-14T21:52:56.963Z,14.52
2023-05-14T21:55:24.404Z,14.44
2023-05-14T21:57:51.809Z,14.44
2023-05-14T22:00:23.479Z,14.29
2023-05-14T22:02:52.595Z,14.24
2023-05-14T22:05:20.698Z,14.31
2023-05-14T22:07:48.778Z,14.28
2023-05-14T22:10:16.679Z,14.23
2023-05-14T22:12:45.164Z,14.13
2023-05-14T22:15:12.823Z,14.14
2023-05-14T22:17:39.931Z,14.12
2023-05-14T22:20:07.747Z,14.18
2023-05-14T22:22:34.979Z,14.18
2023-05-14T22:25:24.814Z,14.14
2023-05-14T22:27:52.145Z,14.16
2023-05-14T22:30:19.654Z,14.12
2023-05-14T22:32:47.674Z,14.14
2023-05-14T22:35:15.481Z,14.16
2023-05-14T22:37:42.948Z,14.14
2023-05-14T22:40:10.677Z,14.07
2023-05-14T22:42:38.134Z,14.05
2023-05-14T22:45:05.796Z,13.97
2023-05-14T22:47:32.828Z,13.94
2023-05-14T22:49:59.896Z,13.95
2023-05-14T22:52:27.016Z,13.94
2023-05-14T22:54:54.559Z,13.96
2023-05-14T22:57:21.919Z,13.82
2023-05-14T22:59:49.345Z,13.84
2023-05-14T23:02:16.427Z,13.82
2023-05-14T23:04:43.857Z,13.85
2023-05-14T23:07:10.908Z,13.76
2023-05-14T23:09:37.864Z,13.81
2023-05-14T23:12:05.444Z,13.85
2023-05-14T23:14:32.452Z,13.86
2023-05-14T23:16:59.669Z,13.82
2023-05-14T23:19:26.715Z,13.83
2023-05-14T23:21:53.735Z,13.79
2023-05-14T23:24:20.786Z,13.76
2023-05-14T23:26:47.886Z,13.68
2023-05-14T23:29:14.935Z,13.74
2023-05-14T23:31:43.639Z,13.69
2023-05-14T23:34:10.954Z,13.65
2023-05-14T23:36:39.756Z,13.60
2023-05-14T23:39:06.818Z,13.61
2023-05-14T23:41:33.744Z,13.55
2023-05-14T23:44:00.851Z,13.58
2023-05-14T23:46:28.222Z,13.52
2023-05-14T23:48:57.174Z,13.52
2023-05-14T23:51:24.752Z,13.53
2023-05-14T23:53:56.329Z,13.48
2023-05-14T23:56:29.186Z,13.42
2023-05-14T23:58:56.804Z,13.45
